Weather at Bay City Regional Airport

Public forecast

Using degrees Fahrenheit for public forecast. Weather courtesy of forecast.io.

Current aviation weather report (METAR) for Bay City Regional Airport

Retrieved 2020/11/28 21:35 UTC (2 minutes ago):

KBYY 282135Z AUTO 06003KT 10SM -RA BKN006 OVC012 18/18 A3000 RMK AO2 P0007 T01880184

Closest aviation forecast (TAF) to Bay City Regional Airport

Closest forecast is Texas Gulf Coast Regional Airport, 22.6 nm (41.8 km) ENE. Retrieved 2020/11/28 18:27 UTC (3 hours ago):

TAF KLBX 281725Z 2818/2918 11012KT 6SM -SHRA VCTS OVC010CB FM290800 02008KT 4SM SHRA BR VCTS OVC007CB FM291200 34015KT 5SM BR VCSH OVC007 FM291400 33015G23KT 4SM BR BKN010